sensor_id;sensor_type;location;lat;lon;timestamp;P1;durP1;ratioP1;P2;durP2;ratioP2
22040;SDS011;11184;52.444;13.578;2023-01-08T00:00:12;4.10;;;3.72;;
22040;SDS011;11184;52.444;13.578;2023-01-08T00:02:57;4.10;;;3.80;;
22040;SDS011;11184;52.444;13.578;2023-01-08T00:05:41;4.60;;;4.20;;
22040;SDS011;11184;52.444;13.578;2023-01-08T00:08:26;7.53;;;3.80;;
22040;SDS011;11184;52.444;13.578;2023-01-08T00:11:11;4.95;;;4.50;;
22040;SDS011;11184;52.444;13.578;2023-01-08T00:13:56;4.47;;;4.07;;
22040;SDS011;11184;52.444;13.578;2023-01-08T00:16:40;6.68;;;4.53;;
22040;SDS011;11184;52.444;13.578;2023-01-08T00:19:25;5.57;;;4.57;;
22040;SDS011;11184;52.444;13.578;2023-01-08T00:22:09;4.22;;;3.83;;
22040;SDS011;11184;52.444;13.578;2023-01-08T00:24:54;5.28;;;4.78;;
22040;SDS011;11184;52.444;13.578;2023-01-08T00:27:39;7.47;;;5.38;;
22040;SDS011;11184;52.444;13.578;2023-01-08T00:30:23;8.38;;;4.60;;
22040;SDS011;11184;52.444;13.578;2023-01-08T00:33:08;7.03;;;5.38;;
22040;SDS011;11184;52.444;13.578;2023-01-08T00:35:53;6.15;;;5.63;;
22040;SDS011;11184;52.444;13.578;2023-01-08T00:38:37;5.90;;;4.70;;
22040;SDS011;11184;52.444;13.578;2023-01-08T00:41:22;5.90;;;4.85;;
22040;SDS011;11184;52.444;13.578;2023-01-08T00:44:07;10.57;;;5.05;;
22040;SDS011;11184;52.444;13.578;2023-01-08T00:46:52;6.07;;;5.45;;
22040;SDS011;11184;52.444;13.578;2023-01-08T00:49:36;6.80;;;5.85;;
22040;SDS011;11184;52.444;13.578;2023-01-08T00:52:21;7.30;;;5.13;;
22040;SDS011;11184;52.444;13.578;2023-01-08T00:55:06;5.95;;;5.38;;
22040;SDS011;11184;52.444;13.578;2023-01-08T00:57:51;4.85;;;4.40;;
22040;SDS011;11184;52.444;13.578;2023-01-08T01:00:35;5.35;;;4.93;;
22040;SDS011;11184;52.444;13.578;2023-01-08T01:03:20;5.22;;;4.72;;
22040;SDS011;11184;52.444;13.578;2023-01-08T01:06:05;6.78;;;6.13;;
22040;SDS011;11184;52.444;13.578;2023-01-08T01:08:50;5.63;;;4.88;;
22040;SDS011;11184;52.444;13.578;2023-01-08T01:11:35;5.82;;;5.15;;
22040;SDS011;11184;52.444;13.578;2023-01-08T01:14:19;5.85;;;5.25;;
22040;SDS011;11184;52.444;13.578;2023-01-08T01:17:04;6.07;;;5.50;;
22040;SDS011;11184;52.444;13.578;2023-01-08T01:19:48;6.78;;;5.80;;
22040;SDS011;11184;52.444;13.578;2023-01-08T01:22:33;6.22;;;5.63;;
22040;SDS011;11184;52.444;13.578;2023-01-08T01:25:18;7.28;;;5.82;;
22040;SDS011;11184;52.444;13.578;2023-01-08T01:28:03;5.38;;;4.95;;
22040;SDS011;11184;52.444;13.578;2023-01-08T01:30:52;6.88;;;6.18;;
22040;SDS011;11184;52.444;13.578;2023-01-08T01:33:37;9.45;;;6.68;;
22040;SDS011;11184;52.444;13.578;2023-01-08T01:36:22;7.40;;;6.70;;
22040;SDS011;11184;52.444;13.578;2023-01-08T01:39:07;6.95;;;6.35;;
22040;SDS011;11184;52.444;13.578;2023-01-08T01:41:52;6.78;;;6.18;;
22040;SDS011;11184;52.444;13.578;2023-01-08T01:44:39;7.00;;;6.40;;
22040;SDS011;11184;52.444;13.578;2023-01-08T01:47:29;7.68;;;6.97;;
22040;SDS011;11184;52.444;13.578;2023-01-08T01:50:15;7.63;;;6.75;;
22040;SDS011;11184;52.444;13.578;2023-01-08T01:53:02;6.32;;;5.75;;
22040;SDS011;11184;52.444;13.578;2023-01-08T01:55:48;7.43;;;6.75;;
22040;SDS011;11184;52.444;13.578;2023-01-08T01:58:33;6.30;;;5.85;;
22040;SDS011;11184;52.444;13.578;2023-01-08T02:01:18;7.38;;;6.60;;
22040;SDS011;11184;52.444;13.578;2023-01-08T02:04:03;7.35;;;6.53;;
22040;SDS011;11184;52.444;13.578;2023-01-08T02:06:54;7.40;;;6.80;;
22040;SDS011;11184;52.444;13.578;2023-01-08T02:09:42;7.28;;;6.65;;
22040;SDS011;11184;52.444;13.578;2023-01-08T02:12:44;8.15;;;6.82;;
22040;SDS011;11184;52.444;13.578;2023-01-08T02:15:32;7.68;;;6.97;;
22040;SDS011;11184;52.444;13.578;2023-01-08T02:18:19;8.50;;;7.80;;
22040;SDS011;11184;52.444;13.578;2023-01-08T02:21:10;6.50;;;5.95;;
22040;SDS011;11184;52.444;13.578;2023-01-08T02:26:50;8.07;;;7.38;;
22040;SDS011;11184;52.444;13.578;2023-01-08T02:29:36;8.02;;;7.22;;
22040;SDS011;11184;52.444;13.578;2023-01-08T02:32:22;9.07;;;8.20;;
22040;SDS011;11184;52.444;13.578;2023-01-08T02:35:09;9.05;;;8.20;;
22040;SDS011;11184;52.444;13.578;2023-01-08T02:37:54;9.32;;;8.45;;
22040;SDS011;11184;52.444;13.578;2023-01-08T02:40:41;7.85;;;7.25;;
22040;SDS011;11184;52.444;13.578;2023-01-08T02:43:44;8.55;;;7.75;;
22040;SDS011;11184;52.444;13.578;2023-01-08T02:46:30;7.65;;;7.05;;
22040;SDS011;11184;52.444;13.578;2023-01-08T02:49:16;8.82;;;7.93;;
22040;SDS011;11184;52.444;13.578;2023-01-08T02:52:03;8.43;;;7.57;;
22040;SDS011;11184;52.444;13.578;2023-01-08T02:54:49;8.55;;;7.82;;
22040;SDS011;11184;52.444;13.578;2023-01-08T02:57:34;8.75;;;8.02;;
22040;SDS011;11184;52.444;13.578;2023-01-08T03:00:18;8.30;;;7.60;;
22040;SDS011;11184;52.444;13.578;2023-01-08T03:03:13;8.98;;;8.18;;
22040;SDS011;11184;52.444;13.578;2023-01-08T03:06:00;7.72;;;6.93;;
22040;SDS011;11184;52.444;13.578;2023-01-08T03:08:47;8.60;;;7.60;;
22040;SDS011;11184;52.444;13.578;2023-01-08T03:11:38;9.00;;;8.20;;
22040;SDS011;11184;52.444;13.578;2023-01-08T03:14:26;9.27;;;8.38;;
22040;SDS011;11184;52.444;13.578;2023-01-08T03:17:13;9.90;;;8.90;;
22040;SDS011;11184;52.444;13.578;2023-01-08T03:20:03;9.68;;;8.80;;
22040;SDS011;11184;52.444;13.578;2023-01-08T03:22:52;9.70;;;8.82;;
22040;SDS011;11184;52.444;13.578;2023-01-08T03:25:39;9.85;;;8.38;;
22040;SDS011;11184;52.444;13.578;2023-01-08T03:28:26;10.02;;;9.15;;
22040;SDS011;11184;52.444;13.578;2023-01-08T03:31:13;9.23;;;8.43;;
22040;SDS011;11184;52.444;13.578;2023-01-08T03:33:59;9.20;;;8.43;;
22040;SDS011;11184;52.444;13.578;2023-01-08T03:36:46;9.85;;;8.95;;
22040;SDS011;11184;52.444;13.578;2023-01-08T03:39:33;9.55;;;8.75;;
22040;SDS011;11184;52.444;13.578;2023-01-08T03:42:21;10.43;;;8.60;;
22040;SDS011;11184;52.444;13.578;2023-01-08T03:45:06;10.90;;;9.82;;
22040;SDS011;11184;52.444;13.578;2023-01-08T03:47:51;12.43;;;11.10;;
22040;SDS011;11184;52.444;13.578;2023-01-08T03:50:39;10.60;;;8.85;;
22040;SDS011;11184;52.444;13.578;2023-01-08T03:53:24;9.75;;;8.77;;
22040;SDS011;11184;52.444;13.578;2023-01-08T03:56:09;9.35;;;8.55;;
22040;SDS011;11184;52.444;13.578;2023-01-08T03:58:53;9.60;;;8.75;;
22040;SDS011;11184;52.444;13.578;2023-01-08T04:01:38;9.63;;;8.50;;
22040;SDS011;11184;52.444;13.578;2023-01-08T04:04:23;9.55;;;8.77;;
22040;SDS011;11184;52.444;13.578;2023-01-08T04:07:09;9.65;;;8.75;;
22040;SDS011;11184;52.444;13.578;2023-01-08T04:09:54;9.85;;;8.52;;
22040;SDS011;11184;52.444;13.578;2023-01-08T04:12:40;7.68;;;7.05;;
22040;SDS011;11184;52.444;13.578;2023-01-08T04:15:25;9.80;;;8.90;;
22040;SDS011;11184;52.444;13.578;2023-01-08T04:18:09;8.93;;;8.13;;
22040;SDS011;11184;52.444;13.578;2023-01-08T04:20:54;8.98;;;8.27;;
22040;SDS011;11184;52.444;13.578;2023-01-08T04:23:39;9.07;;;8.27;;
22040;SDS011;11184;52.444;13.578;2023-01-08T04:26:23;8.68;;;7.88;;
22040;SDS011;11184;52.444;13.578;2023-01-08T04:29:08;7.90;;;7.30;;
22040;SDS011;11184;52.444;13.578;2023-01-08T04:31:53;9.38;;;8.48;;
22040;SDS011;11184;52.444;13.578;2023-01-08T04:34:37;8.55;;;7.45;;
22040;SDS011;11184;52.444;13.578;2023-01-08T04:37:22;8.52;;;7.75;;
22040;SDS011;11184;52.444;13.578;2023-01-08T04:40:07;8.40;;;7.63;;
22040;SDS011;11184;52.444;13.578;2023-01-08T04:42:52;7.90;;;7.20;;
22040;SDS011;11184;52.444;13.578;2023-01-08T04:45:36;7.93;;;7.18;;
22040;SDS011;11184;52.444;13.578;2023-01-08T04:48:21;9.88;;;8.73;;
22040;SDS011;11184;52.444;13.578;2023-01-08T04:51:05;7.82;;;7.22;;
22040;SDS011;11184;52.444;13.578;2023-01-08T04:53:50;8.63;;;7.93;;
22040;SDS011;11184;52.444;13.578;2023-01-08T04:56:35;8.35;;;7.65;;
22040;SDS011;11184;52.444;13.578;2023-01-08T04:59:20;9.38;;;8.52;;
22040;SDS011;11184;52.444;13.578;2023-01-08T05:02:05;10.35;;;8.90;;
22040;SDS011;11184;52.444;13.578;2023-01-08T05:04:49;8.95;;;8.20;;
22040;SDS011;11184;52.444;13.578;2023-01-08T05:07:34;8.85;;;8.07;;
22040;SDS011;11184;52.444;13.578;2023-01-08T05:10:18;9.15;;;8.23;;
22040;SDS011;11184;52.444;13.578;2023-01-08T05:13:03;10.52;;;8.05;;
22040;SDS011;11184;52.444;13.578;2023-01-08T05:15:48;8.77;;;7.93;;
22040;SDS011;11184;52.444;13.578;2023-01-08T05:18:32;9.18;;;8.13;;
22040;SDS011;11184;52.444;13.578;2023-01-08T05:21:17;8.43;;;7.65;;
22040;SDS011;11184;52.444;13.578;2023-01-08T05:24:02;7.80;;;6.95;;
22040;SDS011;11184;52.444;13.578;2023-01-08T05:26:47;8.20;;;7.50;;
22040;SDS011;11184;52.444;13.578;2023-01-08T05:29:31;13.60;;;8.82;;
22040;SDS011;11184;52.444;13.578;2023-01-08T05:32:16;9.80;;;8.90;;
22040;SDS011;11184;52.444;13.578;2023-01-08T05:35:01;8.65;;;7.85;;
22040;SDS011;11184;52.444;13.578;2023-01-08T05:37:46;9.05;;;8.00;;
22040;SDS011;11184;52.444;13.578;2023-01-08T05:40:30;7.78;;;7.07;;
22040;SDS011;11184;52.444;13.578;2023-01-08T05:43:15;8.52;;;7.82;;
22040;SDS011;11184;52.444;13.578;2023-01-08T05:46:00;8.85;;;7.80;;
22040;SDS011;11184;52.444;13.578;2023-01-08T05:48:44;9.05;;;8.25;;
22040;SDS011;11184;52.444;13.578;2023-01-08T05:51:29;10.18;;;7.45;;
22040;SDS011;11184;52.444;13.578;2023-01-08T05:54:13;8.75;;;7.80;;
22040;SDS011;11184;52.444;13.578;2023-01-08T05:56:58;8.07;;;7.13;;
22040;SDS011;11184;52.444;13.578;2023-01-08T05:59:43;10.30;;;7.75;;
22040;SDS011;11184;52.444;13.578;2023-01-08T06:02:27;8.30;;;7.60;;
22040;SDS011;11184;52.444;13.578;2023-01-08T06:05:12;8.07;;;7.38;;
22040;SDS011;11184;52.444;13.578;2023-01-08T06:07:57;9.18;;;8.38;;
22040;SDS011;11184;52.444;13.578;2023-01-08T06:10:42;7.15;;;6.55;;
22040;SDS011;11184;52.444;13.578;2023-01-08T06:13:27;8.30;;;7.50;;
22040;SDS011;11184;52.444;13.578;2023-01-08T06:16:12;9.68;;;7.68;;
22040;SDS011;11184;52.444;13.578;2023-01-08T06:18:56;6.60;;;6.00;;
22040;SDS011;11184;52.444;13.578;2023-01-08T06:21:41;7.72;;;7.07;;
22040;SDS011;11184;52.444;13.578;2023-01-08T06:24:26;8.10;;;7.40;;
22040;SDS011;11184;52.444;13.578;2023-01-08T06:27:10;8.32;;;7.47;;
22040;SDS011;11184;52.444;13.578;2023-01-08T06:29:55;7.57;;;6.93;;
22040;SDS011;11184;52.444;13.578;2023-01-08T06:32:39;7.10;;;6.43;;
22040;SDS011;11184;52.444;13.578;2023-01-08T06:35:24;8.18;;;6.93;;
22040;SDS011;11184;52.444;13.578;2023-01-08T06:38:09;6.88;;;6.32;;
22040;SDS011;11184;52.444;13.578;2023-01-08T06:40:54;7.25;;;6.55;;
22040;SDS011;11184;52.444;13.578;2023-01-08T06:43:38;7.85;;;7.00;;
22040;SDS011;11184;52.444;13.578;2023-01-08T06:46:23;7.38;;;6.65;;
22040;SDS011;11184;52.444;13.578;2023-01-08T06:49:08;8.25;;;7.30;;
22040;SDS011;11184;52.444;13.578;2023-01-08T06:51:52;7.43;;;6.75;;
22040;SDS011;11184;52.444;13.578;2023-01-08T06:54:37;7.10;;;6.60;;
22040;SDS011;11184;52.444;13.578;2023-01-08T06:57:22;7.00;;;6.40;;
22040;SDS011;11184;52.444;13.578;2023-01-08T07:00:07;7.18;;;6.47;;
22040;SDS011;11184;52.444;13.578;2023-01-08T07:02:52;7.18;;;6.55;;
22040;SDS011;11184;52.444;13.578;2023-01-08T07:05:37;8.15;;;6.18;;
22040;SDS011;11184;52.444;13.578;2023-01-08T07:08:22;6.22;;;5.72;;
22040;SDS011;11184;52.444;13.578;2023-01-08T07:11:06;6.40;;;5.80;;
22040;SDS011;11184;52.444;13.578;2023-01-08T07:13:51;6.43;;;5.82;;
22040;SDS011;11184;52.444;13.578;2023-01-08T07:16:36;6.05;;;5.55;;
22040;SDS011;11184;52.444;13.578;2023-01-08T07:19:21;6.78;;;5.78;;
22040;SDS011;11184;52.444;13.578;2023-01-08T07:22:05;7.93;;;5.95;;
22040;SDS011;11184;52.444;13.578;2023-01-08T07:24:51;6.53;;;5.82;;
22040;SDS011;11184;52.444;13.578;2023-01-08T07:27:35;7.30;;;6.65;;
22040;SDS011;11184;52.444;13.578;2023-01-08T07:30:20;6.22;;;5.72;;
22040;SDS011;11184;52.444;13.578;2023-01-08T07:33:05;6.50;;;4.93;;
22040;SDS011;11184;52.444;13.578;2023-01-08T07:35:53;7.82;;;6.47;;
22040;SDS011;11184;52.444;13.578;2023-01-08T07:38:38;4.97;;;4.55;;
22040;SDS011;11184;52.444;13.578;2023-01-08T07:41:23;5.90;;;5.40;;
22040;SDS011;11184;52.444;13.578;2023-01-08T07:44:07;9.52;;;5.65;;
22040;SDS011;11184;52.444;13.578;2023-01-08T07:46:52;6.53;;;6.03;;
22040;SDS011;11184;52.444;13.578;2023-01-08T07:49:36;5.53;;;4.95;;
22040;SDS011;11184;52.444;13.578;2023-01-08T07:52:21;6.90;;;6.20;;
22040;SDS011;11184;52.444;13.578;2023-01-08T07:55:06;7.25;;;6.57;;
22040;SDS011;11184;52.444;13.578;2023-01-08T07:57:50;7.28;;;5.95;;
22040;SDS011;11184;52.444;13.578;2023-01-08T08:00:35;6.95;;;6.35;;
22040;SDS011;11184;52.444;13.578;2023-01-08T08:03:20;6.68;;;6.07;;
22040;SDS011;11184;52.444;13.578;2023-01-08T08:06:04;5.55;;;5.05;;
22040;SDS011;11184;52.444;13.578;2023-01-08T08:08:49;5.97;;;5.20;;
22040;SDS011;11184;52.444;13.578;2023-01-08T08:11:34;5.22;;;4.78;;
22040;SDS011;11184;52.444;13.578;2023-01-08T08:14:21;6.45;;;5.95;;
22040;SDS011;11184;52.444;13.578;2023-01-08T08:17:05;6.07;;;5.57;;
22040;SDS011;11184;52.444;13.578;2023-01-08T08:19:50;6.00;;;5.50;;
22040;SDS011;11184;52.444;13.578;2023-01-08T08:22:35;7.28;;;6.63;;
22040;SDS011;11184;52.444;13.578;2023-01-08T08:25:20;6.30;;;5.80;;
22040;SDS011;11184;52.444;13.578;2023-01-08T08:28:04;5.88;;;5.28;;
22040;SDS011;11184;52.444;13.578;2023-01-08T08:30:49;6.13;;;5.50;;
22040;SDS011;11184;52.444;13.578;2023-01-08T08:33:34;5.55;;;5.05;;
22040;SDS011;11184;52.444;13.578;2023-01-08T08:36:19;5.32;;;4.82;;
22040;SDS011;11184;52.444;13.578;2023-01-08T08:39:03;5.97;;;5.38;;
22040;SDS011;11184;52.444;13.578;2023-01-08T08:41:48;5.35;;;4.85;;
22040;SDS011;11184;52.444;13.578;2023-01-08T08:44:33;5.18;;;4.82;;
22040;SDS011;11184;52.444;13.578;2023-01-08T08:47:18;5.18;;;4.72;;
22040;SDS011;11184;52.444;13.578;2023-01-08T08:50:03;6.20;;;5.70;;
22040;SDS011;11184;52.444;13.578;2023-01-08T08:52:48;5.80;;;5.30;;
22040;SDS011;11184;52.444;13.578;2023-01-08T08:55:32;6.13;;;5.45;;
22040;SDS011;11184;52.444;13.578;2023-01-08T08:58:17;5.65;;;5.18;;
22040;SDS011;11184;52.444;13.578;2023-01-08T09:01:02;4.80;;;3.90;;
22040;SDS011;11184;52.444;13.578;2023-01-08T09:03:47;5.15;;;4.75;;
22040;SDS011;11184;52.444;13.578;2023-01-08T09:06:32;5.68;;;5.18;;
22040;SDS011;11184;52.444;13.578;2023-01-08T09:09:17;4.03;;;3.70;;
22040;SDS011;11184;52.444;13.578;2023-01-08T09:12:02;4.93;;;4.53;;
22040;SDS011;11184;52.444;13.578;2023-01-08T09:14:47;4.20;;;3.88;;
22040;SDS011;11184;52.444;13.578;2023-01-08T09:17:32;5.13;;;4.65;;
22040;SDS011;11184;52.444;13.578;2023-01-08T09:20:19;8.65;;;5.00;;
22040;SDS011;11184;52.444;13.578;2023-01-08T09:23:03;4.80;;;4.30;;
22040;SDS011;11184;52.444;13.578;2023-01-08T09:25:49;5.63;;;4.75;;
22040;SDS011;11184;52.444;13.578;2023-01-08T09:28:41;4.78;;;4.35;;
22040;SDS011;11184;52.444;13.578;2023-01-08T09:31:26;4.65;;;4.25;;
22040;SDS011;11184;52.444;13.578;2023-01-08T09:34:11;4.72;;;4.32;;
22040;SDS011;11184;52.444;13.578;2023-01-08T09:36:55;4.38;;;3.97;;
22040;SDS011;11184;52.444;13.578;2023-01-08T09:39:40;4.70;;;4.30;;
22040;SDS011;11184;52.444;13.578;2023-01-08T09:42:25;3.78;;;3.33;;
22040;SDS011;11184;52.444;13.578;2023-01-08T09:45:11;5.13;;;4.63;;
22040;SDS011;11184;52.444;13.578;2023-01-08T09:48:01;4.88;;;4.07;;
22040;SDS011;11184;52.444;13.578;2023-01-08T09:50:47;4.85;;;4.45;;
22040;SDS011;11184;52.444;13.578;2023-01-08T09:53:32;5.28;;;4.28;;
22040;SDS011;11184;52.444;13.578;2023-01-08T09:56:17;5.32;;;4.82;;
22040;SDS011;11184;52.444;13.578;2023-01-08T09:59:02;4.60;;;4.20;;
22040;SDS011;11184;52.444;13.578;2023-01-08T10:01:48;5.07;;;4.68;;
22040;SDS011;11184;52.444;13.578;2023-01-08T10:04:33;5.75;;;5.25;;
22040;SDS011;11184;52.444;13.578;2023-01-08T10:07:19;4.03;;;3.67;;
22040;SDS011;11184;52.444;13.578;2023-01-08T10:10:04;4.82;;;4.25;;
22040;SDS011;11184;52.444;13.578;2023-01-08T10:12:49;5.05;;;4.15;;
22040;SDS011;11184;52.444;13.578;2023-01-08T10:15:34;4.32;;;3.90;;
22040;SDS011;11184;52.444;13.578;2023-01-08T10:18:19;5.65;;;4.05;;
22040;SDS011;11184;52.444;13.578;2023-01-08T10:21:08;5.00;;;4.10;;
22040;SDS011;11184;52.444;13.578;2023-01-08T10:23:53;4.80;;;4.40;;
22040;SDS011;11184;52.444;13.578;2023-01-08T10:26:38;4.82;;;4.22;;
22040;SDS011;11184;52.444;13.578;2023-01-08T10:29:23;4.70;;;4.18;;
22040;SDS011;11184;52.444;13.578;2023-01-08T10:32:08;5.70;;;4.38;;
22040;SDS011;11184;52.444;13.578;2023-01-08T10:34:57;4.60;;;4.03;;
22040;SDS011;11184;52.444;13.578;2023-01-08T10:37:42;5.28;;;4.88;;
22040;SDS011;11184;52.444;13.578;2023-01-08T10:40:33;4.70;;;4.30;;
22040;SDS011;11184;52.444;13.578;2023-01-08T10:43:20;5.20;;;4.40;;
22040;SDS011;11184;52.444;13.578;2023-01-08T10:46:06;5.03;;;3.45;;
22040;SDS011;11184;52.444;13.578;2023-01-08T10:48:55;4.88;;;4.43;;
22040;SDS011;11184;52.444;13.578;2023-01-08T10:51:47;6.47;;;5.53;;
22040;SDS011;11184;52.444;13.578;2023-01-08T10:54:33;8.30;;;4.78;;
22040;SDS011;11184;52.444;13.578;2023-01-08T10:57:23;6.30;;;5.80;;
22040;SDS011;11184;52.444;13.578;2023-01-08T11:00:20;5.65;;;5.25;;
22040;SDS011;11184;52.444;13.578;2023-01-08T11:03:06;5.60;;;4.72;;
22040;SDS011;11184;52.444;13.578;2023-01-08T11:05:51;5.28;;;4.78;;
22040;SDS011;11184;52.444;13.578;2023-01-08T11:08:36;8.43;;;5.68;;
22040;SDS011;11184;52.444;13.578;2023-01-08T11:11:20;5.53;;;5.07;;
22040;SDS011;11184;52.444;13.578;2023-01-08T11:14:13;5.80;;;5.25;;
22040;SDS011;11184;52.444;13.578;2023-01-08T11:16:58;6.07;;;5.57;;
22040;SDS011;11184;52.444;13.578;2023-01-08T11:19:45;6.47;;;5.53;;
22040;SDS011;11184;52.444;13.578;2023-01-08T11:22:29;4.95;;;4.53;;
22040;SDS011;11184;52.444;13.578;2023-01-08T11:25:16;5.68;;;5.20;;
22040;SDS011;11184;52.444;13.578;2023-01-08T11:28:04;6.72;;;5.95;;
22040;SDS011;11184;52.444;13.578;2023-01-08T11:30:56;6.03;;;5.20;;
22040;SDS011;11184;52.444;13.578;2023-01-08T11:33:41;5.55;;;5.07;;
22040;SDS011;11184;52.444;13.578;2023-01-08T11:36:30;6.47;;;5.88;;
22040;SDS011;11184;52.444;13.578;2023-01-08T11:39:17;8.05;;;6.05;;
22040;SDS011;11184;52.444;13.578;2023-01-08T11:42:26;7.05;;;6.45;;
22040;SDS011;11184;52.444;13.578;2023-01-08T11:45:20;5.03;;;4.60;;
22040;SDS011;11184;52.444;13.578;2023-01-08T11:51:15;7.13;;;5.70;;
22040;SDS011;11184;52.444;13.578;2023-01-08T11:57:20;6.25;;;5.65;;
22040;SDS011;11184;52.444;13.578;2023-01-08T12:03:00;5.35;;;4.88;;
22040;SDS011;11184;52.444;13.578;2023-01-08T12:05:46;4.80;;;4.35;;
22040;SDS011;11184;52.444;13.578;2023-01-08T12:11:31;5.72;;;5.22;;
22040;SDS011;11184;52.444;13.578;2023-01-08T12:14:36;5.78;;;5.18;;
22040;SDS011;11184;52.444;13.578;2023-01-08T12:17:37;7.50;;;5.15;;
22040;SDS011;11184;52.444;13.578;2023-01-08T12:23:31;4.90;;;4.25;;
22040;SDS011;11184;52.444;13.578;2023-01-08T12:26:23;6.32;;;5.05;;
22040;SDS011;11184;52.444;13.578;2023-01-08T12:29:27;7.28;;;4.60;;
22040;SDS011;11184;52.444;13.578;2023-01-08T12:32:22;6.78;;;4.72;;
22040;SDS011;11184;52.444;13.578;2023-01-08T12:35:09;4.85;;;4.10;;
22040;SDS011;11184;52.444;13.578;2023-01-08T12:37:59;5.15;;;4.65;;
22040;SDS011;11184;52.444;13.578;2023-01-08T12:40:47;4.80;;;4.30;;
22040;SDS011;11184;52.444;13.578;2023-01-08T12:43:36;4.70;;;4.28;;
22040;SDS011;11184;52.444;13.578;2023-01-08T12:46:26;6.53;;;3.67;;
22040;SDS011;11184;52.444;13.578;2023-01-08T12:49:12;7.72;;;4.82;;
22040;SDS011;11184;52.444;13.578;2023-01-08T12:52:01;5.57;;;5.07;;
22040;SDS011;11184;52.444;13.578;2023-01-08T12:55:05;5.47;;;4.47;;
22040;SDS011;11184;52.444;13.578;2023-01-08T13:01:10;5.13;;;4.32;;
22040;SDS011;11184;52.444;13.578;2023-01-08T13:04:00;6.40;;;5.03;;
22040;SDS011;11184;52.444;13.578;2023-01-08T13:07:04;5.28;;;4.78;;
22040;SDS011;11184;52.444;13.578;2023-01-08T13:10:08;5.65;;;5.07;;
22040;SDS011;11184;52.444;13.578;2023-01-08T13:12:57;5.97;;;5.47;;
22040;SDS011;11184;52.444;13.578;2023-01-08T13:15:44;4.93;;;4.53;;
22040;SDS011;11184;52.444;13.578;2023-01-08T13:18:28;6.40;;;5.22;;
22040;SDS011;11184;52.444;13.578;2023-01-08T13:21:13;5.05;;;4.65;;
22040;SDS011;11184;52.444;13.578;2023-01-08T13:23:59;5.63;;;5.13;;
22040;SDS011;11184;52.444;13.578;2023-01-08T13:26:44;6.20;;;5.55;;
22040;SDS011;11184;52.444;13.578;2023-01-08T13:35:40;5.25;;;4.75;;
22040;SDS011;11184;52.444;13.578;2023-01-08T13:38:25;7.35;;;5.93;;
22040;SDS011;11184;52.444;13.578;2023-01-08T13:41:23;6.63;;;5.97;;
22040;SDS011;11184;52.444;13.578;2023-01-08T13:44:28;6.65;;;6.03;;
22040;SDS011;11184;52.444;13.578;2023-01-08T13:50:04;6.65;;;6.10;;
22040;SDS011;11184;52.444;13.578;2023-01-08T13:53:01;6.38;;;5.78;;
22040;SDS011;11184;52.444;13.578;2023-01-08T13:58:44;6.00;;;5.40;;
22040;SDS011;11184;52.444;13.578;2023-01-08T14:01:30;7.72;;;6.85;;
22040;SDS011;11184;52.444;13.578;2023-01-08T14:04:19;8.63;;;7.70;;
22040;SDS011;11184;52.444;13.578;2023-01-08T14:07:13;7.68;;;6.65;;
22040;SDS011;11184;52.444;13.578;2023-01-08T14:10:05;8.65;;;7.72;;
22040;SDS011;11184;52.444;13.578;2023-01-08T14:12:50;7.70;;;6.90;;
22040;SDS011;11184;52.444;13.578;2023-01-08T14:15:35;7.72;;;6.82;;
22040;SDS011;11184;52.444;13.578;2023-01-08T14:18:21;9.88;;;6.97;;
22040;SDS011;11184;52.444;13.578;2023-01-08T14:21:07;8.73;;;7.88;;
22040;SDS011;11184;52.444;13.578;2023-01-08T14:23:52;9.90;;;8.77;;
22040;SDS011;11184;52.444;13.578;2023-01-08T14:26:37;8.32;;;7.47;;
22040;SDS011;11184;52.444;13.578;2023-01-08T14:29:23;7.88;;;7.15;;
22040;SDS011;11184;52.444;13.578;2023-01-08T14:32:15;10.32;;;8.20;;
22040;SDS011;11184;52.444;13.578;2023-01-08T14:35:00;7.38;;;6.50;;
22040;SDS011;11184;52.444;13.578;2023-01-08T14:37:47;9.70;;;8.80;;
22040;SDS011;11184;52.444;13.578;2023-01-08T14:40:34;9.05;;;8.30;;
22040;SDS011;11184;52.444;13.578;2023-01-08T14:43:19;8.18;;;7.38;;
22040;SDS011;11184;52.444;13.578;2023-01-08T14:46:07;9.77;;;8.93;;
22040;SDS011;11184;52.444;13.578;2023-01-08T14:48:58;9.38;;;8.57;;
22040;SDS011;11184;52.444;13.578;2023-01-08T14:51:43;8.82;;;7.93;;
22040;SDS011;11184;52.444;13.578;2023-01-08T14:54:31;10.95;;;9.93;;
22040;SDS011;11184;52.444;13.578;2023-01-08T14:57:17;10.55;;;9.43;;
22040;SDS011;11184;52.444;13.578;2023-01-08T15:00:02;9.13;;;8.23;;
22040;SDS011;11184;52.444;13.578;2023-01-08T15:02:48;10.60;;;9.68;;
22040;SDS011;11184;52.444;13.578;2023-01-08T15:05:33;10.57;;;9.57;;
22040;SDS011;11184;52.444;13.578;2023-01-08T15:08:31;10.77;;;9.45;;
22040;SDS011;11184;52.444;13.578;2023-01-08T15:14:10;10.18;;;9.30;;
22040;SDS011;11184;52.444;13.578;2023-01-08T15:16:56;12.80;;;10.55;;
22040;SDS011;11184;52.444;13.578;2023-01-08T15:19:45;10.25;;;9.32;;
22040;SDS011;11184;52.444;13.578;2023-01-08T15:22:32;12.50;;;11.32;;
22040;SDS011;11184;52.444;13.578;2023-01-08T15:25:21;10.70;;;9.70;;
22040;SDS011;11184;52.444;13.578;2023-01-08T15:28:09;11.07;;;9.95;;
22040;SDS011;11184;52.444;13.578;2023-01-08T15:30:57;12.02;;;10.07;;
22040;SDS011;11184;52.444;13.578;2023-01-08T15:33:41;11.88;;;10.73;;
22040;SDS011;11184;52.444;13.578;2023-01-08T15:36:28;10.70;;;9.60;;
22040;SDS011;11184;52.444;13.578;2023-01-08T15:39:12;10.65;;;9.55;;
22040;SDS011;11184;52.444;13.578;2023-01-08T15:42:00;10.95;;;9.52;;
22040;SDS011;11184;52.444;13.578;2023-01-08T15:45:08;15.73;;;9.25;;
22040;SDS011;11184;52.444;13.578;2023-01-08T15:47:54;10.20;;;9.23;;
22040;SDS011;11184;52.444;13.578;2023-01-08T15:50:40;11.27;;;10.07;;
22040;SDS011;11184;52.444;13.578;2023-01-08T15:53:25;11.43;;;9.88;;
22040;SDS011;11184;52.444;13.578;2023-01-08T15:56:10;11.70;;;10.35;;
22040;SDS011;11184;52.444;13.578;2023-01-08T15:58:55;11.52;;;10.30;;
22040;SDS011;11184;52.444;13.578;2023-01-08T16:01:39;12.70;;;11.43;;
22040;SDS011;11184;52.444;13.578;2023-01-08T16:04:24;12.45;;;11.00;;
22040;SDS011;11184;52.444;13.578;2023-01-08T16:07:08;10.52;;;9.48;;
22040;SDS011;11184;52.444;13.578;2023-01-08T16:09:53;11.68;;;10.18;;
22040;SDS011;11184;52.444;13.578;2023-01-08T16:12:38;11.32;;;10.23;;
22040;SDS011;11184;52.444;13.578;2023-01-08T16:15:22;13.30;;;9.75;;
22040;SDS011;11184;52.444;13.578;2023-01-08T16:18:07;9.98;;;9.07;;
22040;SDS011;11184;52.444;13.578;2023-01-08T16:20:58;13.23;;;9.85;;
22040;SDS011;11184;52.444;13.578;2023-01-08T16:23:43;10.73;;;9.77;;
22040;SDS011;11184;52.444;13.578;2023-01-08T16:26:27;10.73;;;9.27;;
22040;SDS011;11184;52.444;13.578;2023-01-08T16:29:12;10.73;;;9.60;;
22040;SDS011;11184;52.444;13.578;2023-01-08T16:31:57;11.20;;;9.38;;
22040;SDS011;11184;52.444;13.578;2023-01-08T16:34:42;10.35;;;9.35;;
22040;SDS011;11184;52.444;13.578;2023-01-08T16:37:26;9.20;;;8.30;;
22040;SDS011;11184;52.444;13.578;2023-01-08T16:40:12;9.55;;;8.70;;
22040;SDS011;11184;52.444;13.578;2023-01-08T16:42:59;10.63;;;9.52;;
22040;SDS011;11184;52.444;13.578;2023-01-08T16:45:47;9.57;;;8.77;;
22040;SDS011;11184;52.444;13.578;2023-01-08T16:48:32;11.15;;;9.82;;
22040;SDS011;11184;52.444;13.578;2023-01-08T16:51:17;8.98;;;8.07;;
22040;SDS011;11184;52.444;13.578;2023-01-08T16:54:05;8.23;;;7.55;;
22040;SDS011;11184;52.444;13.578;2023-01-08T16:56:50;9.38;;;8.57;;
22040;SDS011;11184;52.444;13.578;2023-01-08T16:59:35;8.90;;;8.07;;
22040;SDS011;11184;52.444;13.578;2023-01-08T17:02:20;11.35;;;8.00;;